createdAt,value
2019-03-15T00:02:04.610Z,94605.17
2019-03-15T00:04:35.450Z,94608.62
2019-03-15T00:07:08.803Z,94613.64
2019-03-15T00:09:40.182Z,94610.72
2019-03-15T00:12:11.324Z,94615.22
2019-03-15T00:14:42.392Z,94612.56
2019-03-15T00:17:13.349Z,94618.39
2019-03-15T00:19:46.367Z,94616.02
2019-03-15T00:22:21.033Z,94626.61
2019-03-15T00:24:52.301Z,94615.76
2019-03-15T00:27:23.477Z,94631.38
2019-03-15T00:29:54.777Z,94639.08
2019-03-15T00:32:25.584Z,94640.11
2019-03-15T00:34:57.398Z,94637.73
2019-03-15T00:37:28.601Z,94644.08
2019-03-15T00:39:59.714Z,94646.70
2019-03-15T00:42:30.909Z,94643.53
2019-03-15T00:45:01.706Z,94648.84
2019-03-15T00:47:33.516Z,94650.44
2019-03-15T00:50:04.499Z,94656.27
2019-03-15T00:52:35.739Z,94653.64
2019-03-15T00:55:06.877Z,94655.25
2019-03-15T00:57:38.137Z,94659.50
2019-03-15T01:00:10.923Z,94663.73
2019-03-15T01:02:44.246Z,94671.41
2019-03-15T01:05:21.382Z,94669.55
2019-03-15T01:07:53.248Z,94675.39
2019-03-15T01:10:25.838Z,94678.33
2019-03-15T01:12:57.061Z,94691.31
2019-03-15T01:15:28.197Z,94697.39
2019-03-15T01:17:58.979Z,94694.47
2019-03-15T01:20:30.217Z,94703.23
2019-03-15T01:23:00.953Z,94714.84
2019-03-15T01:25:32.173Z,94726.73
2019-03-15T01:28:03.343Z,94737.09
2019-03-15T01:30:36.368Z,94732.30
2019-03-15T01:33:08.845Z,94726.48
2019-03-15T01:35:41.126Z,94737.07
2019-03-15T01:38:19.007Z,94734.42
2019-03-15T01:40:53.705Z,94733.09
2019-03-15T01:43:26.576Z,94725.63
2019-03-15T01:45:57.356Z,94735.94
2019-03-15T01:48:28.491Z,94731.98
2019-03-15T01:50:59.615Z,94736.20
2019-03-15T01:53:30.387Z,94740.20
2019-03-15T01:56:01.542Z,94745.48
2019-03-15T01:58:32.294Z,94749.98
2019-03-15T02:01:03.086Z,94751.84
2019-03-15T02:03:36.461Z,94749.42
2019-03-15T02:06:10.764Z,94746.24
2019-03-15T02:08:41.535Z,94751.02
2019-03-15T02:11:12.851Z,94762.42
2019-03-15T02:13:43.595Z,94757.63
2019-03-15T02:16:14.369Z,94761.35
2019-03-15T02:18:45.522Z,94767.97
2019-03-15T02:21:16.680Z,94769.55
2019-03-15T02:23:50.488Z,94772.17
2019-03-15T02:26:25.267Z,94771.92
2019-03-15T02:28:56.686Z,94771.64
2019-03-15T02:31:27.476Z,94772.42
2019-03-15T02:33:58.207Z,94772.17
2019-03-15T02:36:28.995Z,94768.20
2019-03-15T02:38:59.967Z,94775.32
2019-03-15T02:41:32.774Z,94773.22
2019-03-15T02:44:03.583Z,94778.52
2019-03-15T02:46:34.501Z,94775.59
2019-03-15T02:49:05.734Z,94776.39
2019-03-15T02:51:36.516Z,94783.28
2019-03-15T02:54:07.266Z,94785.13
2019-03-15T02:56:38.470Z,94779.05
2019-03-15T02:59:09.245Z,94795.67
2019-03-15T03:01:40.060Z,94790.63
2019-03-15T03:04:11.398Z,94799.66
2019-03-15T03:06:47.382Z,94805.76
2019-03-15T03:09:18.180Z,94809.70
2019-03-15T03:11:50.452Z,94812.63
2019-03-15T03:14:24.062Z,94814.72
2019-03-15T03:16:54.835Z,94817.09
2019-03-15T03:19:26.113Z,94818.94
2019-03-15T03:22:00.220Z,94819.47
2019-03-15T03:24:31.026Z,94824.52
2019-03-15T03:27:01.867Z,94829.53
2019-03-15T03:29:33.154Z,94826.05
2019-03-15T03:32:03.982Z,94828.17
2019-03-15T03:34:35.142Z,94830.30
2019-03-15T03:37:06.131Z,94831.88
2019-03-15T03:39:37.047Z,94843.50
2019-03-15T03:42:07.880Z,94843.50
2019-03-15T03:44:39.030Z,94847.97
2019-03-15T03:47:09.857Z,94845.84
2019-03-15T03:49:40.688Z,94853.51
2019-03-15T03:52:14.050Z,94844.25
2019-03-15T03:54:44.828Z,94848.19
2019-03-15T03:57:15.688Z,94839.72
2019-03-15T03:59:46.922Z,94839.70
2019-03-15T04:02:17.851Z,94843.66
2019-03-15T04:04:48.603Z,94851.08
2019-03-15T04:07:19.409Z,94853.72
2019-03-15T04:09:50.227Z,94857.66
2019-03-15T04:12:21.034Z,94862.19
2019-03-15T04:14:55.196Z,94856.37
2019-03-15T04:17:25.957Z,94859.78
2019-03-15T04:19:56.771Z,94858.46
2019-03-15T04:22:30.903Z,94868.77
2019-03-15T04:25:02.345Z,94868.24
2019-03-15T04:27:33.543Z,94870.89
2019-03-15T04:30:08.741Z,94865.88
2019-03-15T04:32:38.289Z,94864.80
2019-03-15T04:35:09.110Z,94873.02
2019-03-15T04:37:39.926Z,94868.52
2019-03-15T04:40:11.443Z,94871.17
2019-03-15T04:42:44.223Z,94876.73
2019-03-15T04:45:15.069Z,94874.37
2019-03-15T04:47:45.917Z,94883.08
2019-03-15T04:50:16.998Z,94875.94
2019-03-15T04:52:47.773Z,94884.95
2019-03-15T04:55:20.566Z,94884.67
2019-03-15T04:57:51.352Z,94879.91
2019-03-15T05:00:22.212Z,94890.24
2019-03-15T05:02:55.706Z,94894.70
2019-03-15T05:05:26.597Z,94896.55
2019-03-15T05:08:00.459Z,94895.47
2019-03-15T05:10:32.011Z,94903.93
2019-03-15T05:13:02.846Z,94910.23
2019-03-15T05:15:37.251Z,94895.16
2019-03-15T05:18:08.323Z,94894.59
2019-03-15T05:20:41.917Z,94897.48
2019-03-15T05:23:13.496Z,94893.24
2019-03-15T05:25:46.025Z,94890.84
2019-03-15T05:28:21.223Z,94887.13
2019-03-15T05:30:56.447Z,94889.52
2019-03-15T05:33:30.375Z,94898.50
2019-03-15T05:36:04.405Z,94892.92
2019-03-15T05:38:37.722Z,94902.46
2019-03-15T05:41:08.613Z,94902.74
2019-03-15T05:43:39.962Z,94902.70
2019-03-15T05:46:11.212Z,94914.09
2019-03-15T05:48:42.056Z,94908.27
2019-03-15T05:51:12.863Z,94908.52
2019-03-15T05:53:44.387Z,94906.67
2019-03-15T05:56:15.631Z,94905.62
2019-03-15T05:58:46.450Z,94903.55
2019-03-15T06:01:17.299Z,94906.75
2019-03-15T06:03:49.370Z,94902.81
2019-03-15T06:06:20.474Z,94905.73
2019-03-15T06:08:51.286Z,94899.12
2019-03-15T06:11:23.072Z,94904.42
2019-03-15T06:13:57.145Z,94913.19
2019-03-15T06:16:27.914Z,94905.04
2019-03-15T06:19:01.114Z,94901.87
2019-03-15T06:21:34.609Z,94906.46
2019-03-15T06:24:07.962Z,94912.38
2019-03-15T06:26:41.290Z,94913.48
2019-03-15T06:29:12.149Z,94913.30
2019-03-15T06:31:49.523Z,94917.87
2019-03-15T06:34:20.424Z,94920.86
2019-03-15T06:36:51.649Z,94923.28
2019-03-15T06:39:24.383Z,94921.44
2019-03-15T06:41:55.697Z,94924.36
2019-03-15T06:44:27.317Z,94917.19
2019-03-15T06:46:59.042Z,94913.74
2019-03-15T06:49:33.789Z,94922.20
2019-03-15T06:52:07.440Z,94914.81
2019-03-15T06:54:38.700Z,94915.62
2019-03-15T06:57:12.311Z,94903.95
2019-03-15T06:59:43.446Z,94908.22
2019-03-15T07:02:15.984Z,94904.02
2019-03-15T07:04:46.841Z,94908.02
2019-03-15T07:07:20.056Z,94908.59
2019-03-15T07:09:51.158Z,94899.34
2019-03-15T07:12:22.183Z,94894.89
2019-03-15T07:14:53.475Z,94907.91
2019-03-15T07:17:24.260Z,94896.53
2019-03-15T07:19:56.638Z,94895.77
2019-03-15T07:22:27.408Z,94899.23
2019-03-15T07:24:58.710Z,94901.13
2019-03-15T07:27:31.087Z,94893.19
2019-03-15T07:33:24.211Z,94890.36
2019-03-15T07:35:59.596Z,94900.51
2019-03-15T07:38:31.284Z,94906.14
2019-03-15T07:41:02.508Z,94906.44
2019-03-15T07:43:33.538Z,94901.41
2019-03-15T07:46:05.367Z,94903.30
2019-03-15T07:48:37.961Z,94907.28
2019-03-15T07:51:09.340Z,94905.70
2019-03-15T07:53:40.187Z,94908.08
2019-03-15T07:56:11.368Z,94898.53
2019-03-15T07:58:42.266Z,94899.12
2019-03-15T08:01:15.285Z,94896.48
2019-03-15T08:04:15.852Z,94889.59
2019-03-15T08:06:35.241Z,94887.22
2019-03-15T08:09:08.171Z,94886.67
2019-03-15T08:11:39.393Z,94894.39
2019-03-15T08:14:11.785Z,94890.66
2019-03-15T08:16:45.376Z,94899.44
2019-03-15T08:19:26.417Z,94902.34
2019-03-15T08:21:57.379Z,94906.86
2019-03-15T08:24:32.212Z,94914.30
2019-03-15T08:27:06.280Z,94911.63
2019-03-15T08:29:39.245Z,94905.00
2019-03-15T08:32:14.858Z,94905.81
2019-03-15T08:34:46.416Z,94906.58
2019-03-15T08:37:17.209Z,94906.59
2019-03-15T08:39:52.488Z,94905.80
2019-03-15T08:42:20.746Z,94897.30
2019-03-15T08:44:51.630Z,94906.06
2019-03-15T08:47:28.459Z,94912.70
2019-03-15T08:50:02.754Z,94911.38
2019-03-15T08:52:42.134Z,94912.95
2019-03-15T08:55:15.060Z,94908.19
2019-03-15T08:57:45.915Z,94908.96
2019-03-15T09:00:20.035Z,94906.59
2019-03-15T09:02:51.347Z,94905.52
2019-03-15T09:05:22.537Z,94908.17
2019-03-15T09:07:53.619Z,94922.02
2019-03-15T09:10:25.991Z,94919.88
2019-03-15T09:12:58.437Z,94912.98
2019-03-15T09:15:30.864Z,94902.35
2019-03-15T09:18:02.434Z,94902.08
2019-03-15T09:20:53.683Z,94897.03
2019-03-15T09:23:38.866Z,94897.28
2019-03-15T09:26:14.125Z,94893.58
2019-03-15T09:28:49.001Z,94896.52
2019-03-15T09:31:20.019Z,94890.11
2019-03-15T09:33:51.875Z,94898.88
2019-03-15T09:36:23.995Z,94889.33
2019-03-15T09:38:55.219Z,94890.38
2019-03-15T09:41:33.349Z,94893.81
2019-03-15T09:44:01.836Z,94893.30
2019-03-15T09:46:32.840Z,94890.62
2019-03-15T09:49:21.451Z,94889.05
2019-03-15T09:52:01.048Z,94891.97
2019-03-15T09:54:33.078Z,94888.80
2019-03-15T09:57:06.065Z,94892.78
2019-03-15T09:59:38.932Z,94894.10
2019-03-15T10:02:29.661Z,94894.10
2019-03-15T10:04:54.420Z,94901.27
2019-03-15T10:07:38.667Z,94898.89
2019-03-15T10:10:16.847Z,94896.25
2019-03-15T10:13:05.773Z,94899.16
2019-03-15T10:15:44.671Z,94885.61
2019-03-15T10:18:15.983Z,94876.83
2019-03-15T10:21:12.893Z,94876.85
2019-03-15T10:23:57.733Z,94879.20
2019-03-15T10:26:30.157Z,94868.88
2019-03-15T10:29:14.205Z,94878.42
2019-03-15T10:31:49.470Z,94875.23
2019-03-15T10:34:25.063Z,94878.41
2019-03-15T10:37:01.772Z,94872.80
2019-03-15T10:39:33.898Z,94870.95
2019-03-15T10:42:05.268Z,94874.41
2019-03-15T10:44:39.311Z,94870.98
2019-03-15T10:47:11.982Z,94867.79
2019-03-15T10:49:45.379Z,94864.59
2019-03-15T10:52:16.692Z,94863.27
2019-03-15T10:54:48.480Z,94854.52
2019-03-15T10:57:26.423Z,94854.53
2019-03-15T10:59:57.353Z,94849.75
2019-03-15T11:02:44.895Z,94852.39
2019-03-15T11:05:22.650Z,94846.03
2019-03-15T11:08:02.460Z,94845.23
2019-03-15T11:10:59.893Z,94841.20
2019-03-15T11:13:36.060Z,94833.77
2019-03-15T11:16:44.386Z,94829.27
2019-03-15T11:19:17.083Z,94824.77
2019-03-15T11:21:58.298Z,94828.98
2019-03-15T11:25:16.033Z,94822.34
2019-03-15T11:28:04.376Z,94819.70
2019-03-15T11:30:43.383Z,94811.73
2019-03-15T11:33:55.052Z,94798.45
2019-03-15T11:36:57.756Z,94808.80
2019-03-15T11:39:29.127Z,94809.08
2019-03-15T11:42:00.082Z,94810.16
2019-03-15T11:44:42.387Z,94800.88
2019-03-15T11:47:26.562Z,94799.55
2019-03-15T11:50:12.045Z,94789.73
2019-03-15T11:53:08.322Z,94783.09
2019-03-15T11:55:42.932Z,94785.23
2019-03-15T11:58:18.899Z,94780.45
2019-03-15T12:00:53.659Z,94772.45
2019-03-15T12:03:24.505Z,94771.15
2019-03-15T12:05:55.259Z,94773.27
2019-03-15T12:08:29.568Z,94775.67
2019-03-15T12:11:00.590Z,94779.13
2019-03-15T12:13:31.462Z,94767.95
2019-03-15T12:16:04.988Z,94762.38
2019-03-15T12:18:35.845Z,94761.85
2019-03-15T12:21:07.730Z,94761.33
2019-03-15T12:23:39.071Z,94758.67
2019-03-15T12:26:10.281Z,94751.77
2019-03-15T12:28:43.122Z,94752.05
2019-03-15T12:31:15.945Z,94746.73
2019-03-15T12:33:48.493Z,94734.25
2019-03-15T12:36:19.937Z,94744.06
2019-03-15T12:38:53.742Z,94737.44
2019-03-15T12:41:25.366Z,94739.03
2019-03-15T12:43:59.248Z,94736.64
2019-03-15T12:46:30.349Z,94725.45
2019-03-15T12:49:10.863Z,94721.23
2019-03-15T12:51:41.911Z,94705.32
2019-03-15T12:54:12.884Z,94721.52
2019-03-15T12:56:53.643Z,94707.18
2019-03-15T12:59:21.033Z,94705.85
2019-03-15T13:01:51.842Z,94707.98
2019-03-15T13:04:23.331Z,94702.66
2019-03-15T13:06:54.414Z,94703.70
2019-03-15T13:09:25.500Z,94702.66
2019-03-15T13:12:10.405Z,94698.40
2019-03-15T13:14:57.782Z,94690.44
2019-03-15T13:17:40.247Z,94698.69
2019-03-15T13:20:19.561Z,94700.28
2019-03-15T13:23:19.000Z,94698.67
2019-03-15T13:25:51.508Z,94697.88
2019-03-15T13:28:22.444Z,94695.76
2019-03-15T13:30:55.170Z,94686.45
2019-03-15T13:33:26.340Z,94681.41
2019-03-15T13:36:00.541Z,94680.36
2019-03-15T13:38:44.420Z,94686.20
2019-03-15T13:41:17.435Z,94680.63
2019-03-15T13:43:48.412Z,94656.44
2019-03-15T13:46:19.234Z,94662.84
2019-03-15T13:48:52.710Z,94653.81
2019-03-15T13:51:27.239Z,94659.63
2019-03-15T13:53:58.425Z,94660.44
2019-03-15T13:56:35.750Z,94661.77
2019-03-15T13:59:09.437Z,94660.67
2019-03-15T14:01:42.910Z,94657.48
2019-03-15T14:04:13.767Z,94655.63
2019-03-15T14:06:44.966Z,94654.30
2019-03-15T14:09:16.039Z,94648.95
2019-03-15T14:11:46.882Z,94661.97
2019-03-15T14:14:18.070Z,94659.31
2019-03-15T14:16:48.955Z,94651.61
2019-03-15T14:19:20.583Z,94652.14
2019-03-15T14:21:54.505Z,94656.36
2019-03-15T14:24:28.199Z,94641.22
2019-03-15T14:27:02.945Z,94641.98
2019-03-15T14:29:34.256Z,94639.33
2019-03-15T14:32:06.937Z,94639.06
2019-03-15T14:34:38.614Z,94639.33
2019-03-15T14:37:10.469Z,94645.70
2019-03-15T14:39:59.779Z,94657.39
2019-03-15T14:42:37.329Z,94644.63
2019-03-15T14:45:19.531Z,94635.56
2019-03-15T14:47:53.171Z,94620.63
2019-03-15T14:50:24.300Z,94614.52
2019-03-15T14:52:59.174Z,94613.14
2019-03-15T14:55:34.636Z,94601.44
2019-03-15T14:58:15.147Z,94603.78
2019-03-15T15:00:53.704Z,94614.41
2019-03-15T15:03:25.827Z,94603.77
2019-03-15T15:06:01.120Z,94605.59
2019-03-15T15:08:40.464Z,94608.23
2019-03-15T15:11:12.401Z,94608.17
2019-03-15T15:13:45.223Z,94591.42
2019-03-15T15:16:18.403Z,94594.60
2019-03-15T15:18:57.422Z,94592.47
2019-03-15T15:21:28.399Z,94591.89
2019-03-15T15:24:01.140Z,94584.95
2019-03-15T15:26:32.309Z,94580.42
2019-03-15T15:29:03.431Z,94593.94
2019-03-15T15:31:34.281Z,94595.27
2019-03-15T15:34:08.374Z,94596.00
2019-03-15T15:36:41.949Z,94602.38
2019-03-15T15:39:13.279Z,94604.23
2019-03-15T15:41:46.277Z,94614.08
2019-03-15T15:44:21.342Z,94611.67
2019-03-15T15:46:52.553Z,94609.00
2019-03-15T15:49:26.477Z,94589.58
2019-03-15T15:52:04.199Z,94591.72
2019-03-15T15:54:42.113Z,94599.97
2019-03-15T15:57:13.114Z,94601.28
2019-03-15T16:00:00.430Z,94587.14
2019-03-15T16:02:31.725Z,94589.27
2019-03-15T16:05:08.559Z,94587.63
2019-03-15T16:07:38.877Z,94586.30
2019-03-15T16:10:18.823Z,94592.68
2019-03-15T16:12:49.719Z,94584.91
2019-03-15T16:15:24.577Z,94588.63
2019-03-15T16:17:58.528Z,94591.02
2019-03-15T16:20:29.631Z,94578.23
2019-03-15T16:23:03.822Z,94578.98
2019-03-15T16:25:40.646Z,94573.09
2019-03-15T16:28:14.573Z,94569.56
2019-03-15T16:30:47.677Z,94580.73
2019-03-15T16:33:18.567Z,94568.73
2019-03-15T16:36:04.033Z,94563.34
2019-03-15T16:38:47.585Z,94566.24
2019-03-15T16:41:18.484Z,94562.44
2019-03-15T16:44:10.701Z,94571.81
2019-03-15T16:46:43.942Z,94563.77
2019-03-15T16:49:17.416Z,94562.42
2019-03-15T16:51:54.939Z,94563.94
2019-03-15T16:54:28.465Z,94561.00
2019-03-15T16:57:07.863Z,94554.55
2019-03-15T16:59:49.553Z,94549.25
2019-03-15T17:02:29.451Z,94552.69
2019-03-15T17:05:00.440Z,94552.36
2019-03-15T17:07:37.526Z,94554.48
2019-03-15T17:10:15.423Z,94545.14
2019-03-15T17:12:51.565Z,94539.20
2019-03-15T17:15:30.580Z,94547.95
2019-03-15T17:18:08.808Z,94542.55
2019-03-15T17:20:41.132Z,94534.56
2019-03-15T17:23:12.564Z,94527.16
2019-03-15T17:25:46.458Z,94529.74
2019-03-15T17:28:17.265Z,94536.41
2019-03-15T17:30:48.801Z,94548.66
2019-03-15T17:33:19.822Z,94545.34
2019-03-15T17:35:50.614Z,94542.92
2019-03-15T17:38:22.955Z,94549.61
2019-03-15T17:40:55.315Z,94545.61
2019-03-15T17:43:29.072Z,94533.81
2019-03-15T17:46:00.999Z,94536.25
2019-03-15T17:48:38.035Z,94540.20
2019-03-15T17:51:09.289Z,94538.27
2019-03-15T17:53:43.768Z,94535.61
2019-03-15T17:56:14.935Z,94544.70
2019-03-15T17:58:46.967Z,94538.81
2019-03-15T18:01:18.995Z,94542.95
2019-03-15T18:03:50.113Z,94528.59
2019-03-15T18:06:23.200Z,94528.03
2019-03-15T18:08:54.429Z,94535.95
2019-03-15T18:11:30.359Z,94531.47
2019-03-15T18:14:01.383Z,94522.67
2019-03-15T18:16:36.556Z,94523.95
2019-03-15T18:19:08.544Z,94526.56
2019-03-15T18:21:39.763Z,94520.72
2019-03-15T18:24:14.431Z,94528.43
2019-03-15T18:26:48.277Z,94526.81
2019-03-15T18:29:27.273Z,94531.86
2019-03-15T18:32:02.957Z,94515.33
2019-03-15T18:34:36.523Z,94517.20
2019-03-15T18:37:07.429Z,94526.47
2019-03-15T18:39:38.728Z,94530.27
2019-03-15T18:45:41.795Z,94518.47
2019-03-15T18:48:16.248Z,94525.93
2019-03-15T18:50:48.666Z,94526.78
2019-03-15T18:53:31.049Z,94527.36
2019-03-15T18:56:05.948Z,94529.99
2019-03-15T18:58:37.525Z,94519.80
2019-03-15T19:01:22.350Z,94517.99
2019-03-15T19:03:53.964Z,94523.01
2019-03-15T19:06:25.066Z,94525.62
2019-03-15T19:08:56.324Z,94534.92
2019-03-15T19:11:27.983Z,94526.29
2019-03-15T19:14:08.996Z,94534.30
2019-03-15T19:16:40.179Z,94548.64
2019-03-15T19:19:18.884Z,94542.04
2019-03-15T19:21:51.689Z,94552.25
2019-03-15T19:24:26.897Z,94544.31
2019-03-15T19:26:59.267Z,94540.06
2019-03-15T19:29:34.076Z,94545.11
2019-03-15T19:32:06.862Z,94547.01
2019-03-15T19:34:39.535Z,94546.27
2019-03-15T19:37:13.439Z,94553.98
2019-03-15T19:39:46.331Z,94575.27
2019-03-15T19:42:17.981Z,94583.58
2019-03-15T19:44:49.942Z,94606.01
2019-03-15T19:47:21.612Z,94626.75
2019-03-15T19:49:54.578Z,94623.02
2019-03-15T19:52:31.947Z,94632.16
2019-03-15T19:55:06.257Z,94630.52
2019-03-15T19:57:38.170Z,94629.86
2019-03-15T20:00:17.715Z,94624.62
2019-03-15T20:02:51.180Z,94636.14
2019-03-15T20:05:32.314Z,94642.33
2019-03-15T20:08:03.768Z,94665.23
2019-03-15T20:10:34.835Z,94670.06
2019-03-15T20:13:06.531Z,94665.29
2019-03-15T20:15:40.596Z,94670.12
2019-03-15T20:18:21.134Z,94685.30
2019-03-15T20:20:56.095Z,94693.31
2019-03-15T20:23:27.251Z,94709.27
2019-03-15T20:26:00.560Z,94711.97
2019-03-15T20:28:33.458Z,94704.27
2019-03-15T20:31:12.768Z,94721.31
2019-03-15T20:34:00.535Z,94722.11
2019-03-15T20:36:34.173Z,94721.62
2019-03-15T20:39:07.025Z,94729.06
2019-03-15T20:41:44.148Z,94742.37
2019-03-15T20:44:28.412Z,94735.73
2019-03-15T20:47:03.351Z,94739.72
2019-03-15T20:49:40.471Z,94749.84
2019-03-15T20:52:24.899Z,94762.06
2019-03-15T20:55:01.199Z,94751.97
2019-03-15T20:57:36.636Z,94765.25
2019-03-15T21:00:14.531Z,94740.02
2019-03-15T21:02:46.502Z,94756.51
2019-03-15T21:05:19.252Z,94755.97
2019-03-15T21:07:53.672Z,94760.75
2019-03-15T21:10:31.129Z,94765.56
2019-03-15T21:13:09.361Z,94764.23
2019-03-15T21:15:45.336Z,94779.10
2019-03-15T21:18:25.044Z,94778.83
2019-03-15T21:21:01.383Z,94780.69
2019-03-15T21:23:34.431Z,94784.95
2019-03-15T21:26:08.639Z,94801.42
2019-03-15T21:28:42.752Z,94823.18
2019-03-15T21:31:15.307Z,94814.96
2019-03-15T21:34:08.410Z,94814.13
2019-03-15T21:36:51.071Z,94817.30
2019-03-15T21:39:27.347Z,94809.08
2019-03-15T21:41:58.520Z,94822.08
2019-03-15T21:44:30.524Z,94811.45
2019-03-15T21:47:02.106Z,94818.36
2019-03-15T21:49:35.327Z,94819.69
2019-03-15T21:52:06.377Z,94825.25
2019-03-15T21:54:38.980Z,94820.73
2019-03-15T21:57:12.450Z,94836.95
2019-03-15T21:59:44.819Z,94848.62
2019-03-15T22:02:15.601Z,94840.65
2019-03-15T22:04:47.782Z,94835.07
2019-03-15T22:07:24.592Z,94845.70
2019-03-15T22:09:57.452Z,94840.37
2019-03-15T22:12:31.620Z,94850.73
2019-03-15T22:15:07.347Z,94855.26
2019-03-15T22:17:40.726Z,94847.84
2019-03-15T22:20:15.411Z,94851.82
2019-03-15T22:22:46.391Z,94865.07
2019-03-15T22:25:18.857Z,94863.23
2019-03-15T22:27:53.779Z,94867.72
2019-03-15T22:30:24.633Z,94873.59
2019-03-15T22:32:55.552Z,94872.55
2019-03-15T22:35:33.394Z,94885.55
2019-03-15T22:38:08.288Z,94880.50
2019-03-15T22:40:41.473Z,94889.24
2019-03-15T22:43:18.530Z,94890.81
2019-03-15T22:45:50.972Z,94891.63
2019-03-15T22:48:23.766Z,94900.11
2019-03-15T22:50:59.903Z,94904.61
2019-03-15T22:53:32.699Z,94909.37
2019-03-15T22:56:11.044Z,94906.73
2019-03-15T22:58:46.152Z,94913.08
2019-03-15T23:01:29.485Z,94913.86
2019-03-15T23:03:53.840Z,94912.78
2019-03-15T23:06:27.960Z,94916.77
2019-03-15T23:08:59.390Z,94912.55
2019-03-15T23:11:30.313Z,94918.11
2019-03-15T23:14:02.654Z,94914.91
2019-03-15T23:16:36.502Z,94926.31
2019-03-15T23:19:07.520Z,94937.98
2019-03-15T23:21:44.340Z,94942.53
2019-03-15T23:24:16.717Z,94943.56
2019-03-15T23:26:49.007Z,94956.02
2019-03-15T23:29:21.494Z,94957.32
2019-03-15T23:31:52.499Z,94961.58
2019-03-15T23:34:23.421Z,94956.26
2019-03-15T23:36:55.791Z,94956.52
2019-03-15T23:39:26.944Z,94958.36
2019-03-15T23:41:58.035Z,94967.91
2019-03-15T23:44:30.473Z,94968.67
2019-03-15T23:47:04.054Z,94974.00
2019-03-15T23:49:35.376Z,94987.23
2019-03-15T23:52:06.231Z,94986.41
2019-03-15T23:54:39.479Z,94983.72
2019-03-15T23:57:10.264Z,94988.75
2019-03-15T23:59:41.463Z,94987.16
